sensor_id;sensor_type;location;lat;lon;timestamp;P1;durP1;ratioP1;P2;durP2;ratioP2
52450;SDS011;38366;53.176;6.540;2022-11-25T00:01:23;10.50;;;3.30;;
52450;SDS011;38366;53.176;6.540;2022-11-25T00:03:50;11.35;;;2.83;;
52450;SDS011;38366;53.176;6.540;2022-11-25T00:08:44;8.10;;;2.53;;
52450;SDS011;38366;53.176;6.540;2022-11-25T00:11:10;11.75;;;2.72;;
52450;SDS011;38366;53.176;6.540;2022-11-25T00:13:39;11.40;;;2.35;;
52450;SDS011;38366;53.176;6.540;2022-11-25T00:16:07;9.80;;;2.72;;
52450;SDS011;38366;53.176;6.540;2022-11-25T00:18:47;10.43;;;2.38;;
52450;SDS011;38366;53.176;6.540;2022-11-25T00:21:15;14.30;;;2.17;;
52450;SDS011;38366;53.176;6.540;2022-11-25T00:23:42;8.60;;;2.70;;
52450;SDS011;38366;53.176;6.540;2022-11-25T00:26:09;17.67;;;3.38;;
52450;SDS011;38366;53.176;6.540;2022-11-25T00:28:39;7.85;;;2.15;;
52450;SDS011;38366;53.176;6.540;2022-11-25T00:31:11;11.77;;;2.65;;
52450;SDS011;38366;53.176;6.540;2022-11-25T00:33:48;8.18;;;2.92;;
52450;SDS011;38366;53.176;6.540;2022-11-25T00:36:19;10.40;;;2.55;;
52450;SDS011;38366;53.176;6.540;2022-11-25T00:38:45;10.40;;;2.60;;
52450;SDS011;38366;53.176;6.540;2022-11-25T00:41:11;14.68;;;3.60;;
52450;SDS011;38366;53.176;6.540;2022-11-25T00:43:56;12.40;;;2.05;;
52450;SDS011;38366;53.176;6.540;2022-11-25T00:46:40;7.30;;;1.90;;
52450;SDS011;38366;53.176;6.540;2022-11-25T00:49:06;10.63;;;2.85;;
52450;SDS011;38366;53.176;6.540;2022-11-25T00:51:31;9.23;;;2.50;;
52450;SDS011;38366;53.176;6.540;2022-11-25T00:53:57;14.32;;;2.95;;
52450;SDS011;38366;53.176;6.540;2022-11-25T00:56:23;7.05;;;2.22;;
52450;SDS011;38366;53.176;6.540;2022-11-25T00:58:49;12.67;;;3.13;;
52450;SDS011;38366;53.176;6.540;2022-11-25T01:01:16;11.48;;;2.35;;
52450;SDS011;38366;53.176;6.540;2022-11-25T01:03:42;14.47;;;3.10;;
52450;SDS011;38366;53.176;6.540;2022-11-25T01:06:09;11.60;;;3.13;;
52450;SDS011;38366;53.176;6.540;2022-11-25T01:08:35;10.00;;;2.67;;
52450;SDS011;38366;53.176;6.540;2022-11-25T01:11:03;12.20;;;3.45;;
52450;SDS011;38366;53.176;6.540;2022-11-25T01:13:31;14.80;;;2.67;;
52450;SDS011;38366;53.176;6.540;2022-11-25T01:15:59;6.53;;;2.58;;
52450;SDS011;38366;53.176;6.540;2022-11-25T01:18:26;11.95;;;2.97;;
52450;SDS011;38366;53.176;6.540;2022-11-25T01:20:52;12.82;;;2.75;;
52450;SDS011;38366;53.176;6.540;2022-11-25T01:23:18;13.57;;;3.17;;
52450;SDS011;38366;53.176;6.540;2022-11-25T01:25:43;21.47;;;3.13;;
52450;SDS011;38366;53.176;6.540;2022-11-25T01:28:09;14.90;;;2.93;;
52450;SDS011;38366;53.176;6.540;2022-11-25T01:30:35;14.27;;;3.03;;
52450;SDS011;38366;53.176;6.540;2022-11-25T01:33:00;19.53;;;3.97;;
52450;SDS011;38366;53.176;6.540;2022-11-25T01:35:26;11.30;;;3.30;;
52450;SDS011;38366;53.176;6.540;2022-11-25T01:37:51;15.47;;;3.10;;
52450;SDS011;38366;53.176;6.540;2022-11-25T01:40:17;16.73;;;4.63;;
52450;SDS011;38366;53.176;6.540;2022-11-25T01:42:44;15.77;;;3.03;;
52450;SDS011;38366;53.176;6.540;2022-11-25T01:47:50;11.95;;;2.72;;
52450;SDS011;38366;53.176;6.540;2022-11-25T01:50:20;11.63;;;3.17;;
52450;SDS011;38366;53.176;6.540;2022-11-25T01:52:50;14.05;;;3.47;;
52450;SDS011;38366;53.176;6.540;2022-11-25T01:55:20;16.88;;;3.30;;
52450;SDS011;38366;53.176;6.540;2022-11-25T01:58:14;8.88;;;2.53;;
52450;SDS011;38366;53.176;6.540;2022-11-25T02:00:42;13.18;;;3.22;;
52450;SDS011;38366;53.176;6.540;2022-11-25T02:03:19;11.48;;;3.30;;
52450;SDS011;38366;53.176;6.540;2022-11-25T02:05:55;11.63;;;3.08;;
52450;SDS011;38366;53.176;6.540;2022-11-25T02:08:30;9.65;;;2.83;;
52450;SDS011;38366;53.176;6.540;2022-11-25T02:10:57;13.90;;;3.70;;
52450;SDS011;38366;53.176;6.540;2022-11-25T02:13:25;12.93;;;2.92;;
52450;SDS011;38366;53.176;6.540;2022-11-25T02:15:52;13.60;;;3.28;;
52450;SDS011;38366;53.176;6.540;2022-11-25T02:18:18;13.17;;;3.33;;
52450;SDS011;38366;53.176;6.540;2022-11-25T02:20:43;15.70;;;3.67;;
52450;SDS011;38366;53.176;6.540;2022-11-25T02:26:04;9.10;;;3.30;;
52450;SDS011;38366;53.176;6.540;2022-11-25T02:28:30;11.15;;;3.30;;
52450;SDS011;38366;53.176;6.540;2022-11-25T02:30:57;15.45;;;3.47;;
52450;SDS011;38366;53.176;6.540;2022-11-25T02:38:23;17.02;;;3.50;;
52450;SDS011;38366;53.176;6.540;2022-11-25T02:40:53;15.60;;;3.88;;
52450;SDS011;38366;53.176;6.540;2022-11-25T02:43:25;17.17;;;3.42;;
52450;SDS011;38366;53.176;6.540;2022-11-25T02:45:56;22.42;;;3.78;;
52450;SDS011;38366;53.176;6.540;2022-11-25T02:48:23;14.05;;;4.07;;
52450;SDS011;38366;53.176;6.540;2022-11-25T02:50:50;18.38;;;4.10;;
52450;SDS011;38366;53.176;6.540;2022-11-25T02:53:17;12.77;;;3.15;;
52450;SDS011;38366;53.176;6.540;2022-11-25T02:58:08;11.75;;;3.38;;
52450;SDS011;38366;53.176;6.540;2022-11-25T03:00:34;14.38;;;3.90;;
52450;SDS011;38366;53.176;6.540;2022-11-25T03:03:00;19.15;;;4.03;;
52450;SDS011;38366;53.176;6.540;2022-11-25T03:05:26;19.00;;;4.22;;
52450;SDS011;38366;53.176;6.540;2022-11-25T03:07:52;15.30;;;3.95;;
52450;SDS011;38366;53.176;6.540;2022-11-25T03:10:18;17.53;;;4.20;;
52450;SDS011;38366;53.176;6.540;2022-11-25T03:12:43;12.23;;;4.27;;
52450;SDS011;38366;53.176;6.540;2022-11-25T03:15:09;14.90;;;3.80;;
52450;SDS011;38366;53.176;6.540;2022-11-25T03:17:35;16.52;;;4.82;;
52450;SDS011;38366;53.176;6.540;2022-11-25T03:20:01;15.00;;;4.20;;
52450;SDS011;38366;53.176;6.540;2022-11-25T03:22:27;20.40;;;5.13;;
52450;SDS011;38366;53.176;6.540;2022-11-25T03:24:52;17.70;;;5.10;;
52450;SDS011;38366;53.176;6.540;2022-11-25T03:27:18;15.43;;;4.00;;
52450;SDS011;38366;53.176;6.540;2022-11-25T03:29:44;12.57;;;4.27;;
52450;SDS011;38366;53.176;6.540;2022-11-25T03:32:09;15.63;;;4.13;;
52450;SDS011;38366;53.176;6.540;2022-11-25T03:34:35;20.97;;;4.40;;
52450;SDS011;38366;53.176;6.540;2022-11-25T03:37:01;15.47;;;5.03;;
52450;SDS011;38366;53.176;6.540;2022-11-25T03:39:26;16.83;;;5.20;;
52450;SDS011;38366;53.176;6.540;2022-11-25T03:41:52;18.33;;;4.03;;
52450;SDS011;38366;53.176;6.540;2022-11-25T03:44:18;11.30;;;4.80;;
52450;SDS011;38366;53.176;6.540;2022-11-25T03:46:43;11.83;;;4.67;;
52450;SDS011;38366;53.176;6.540;2022-11-25T03:49:09;10.60;;;4.07;;
52450;SDS011;38366;53.176;6.540;2022-11-25T03:51:35;18.43;;;5.80;;
52450;SDS011;38366;53.176;6.540;2022-11-25T03:54:00;14.27;;;5.60;;
52450;SDS011;38366;53.176;6.540;2022-11-25T03:56:26;18.67;;;4.97;;
52450;SDS011;38366;53.176;6.540;2022-11-25T03:58:52;19.50;;;6.17;;
52450;SDS011;38366;53.176;6.540;2022-11-25T04:01:17;19.20;;;5.13;;
52450;SDS011;38366;53.176;6.540;2022-11-25T04:03:43;15.30;;;5.50;;
52450;SDS011;38366;53.176;6.540;2022-11-25T04:06:09;20.03;;;6.40;;
52450;SDS011;38366;53.176;6.540;2022-11-25T04:08:34;21.50;;;7.67;;
52450;SDS011;38366;53.176;6.540;2022-11-25T04:11:00;18.40;;;6.50;;
52450;SDS011;38366;53.176;6.540;2022-11-25T04:13:26;22.43;;;5.77;;
52450;SDS011;38366;53.176;6.540;2022-11-25T04:15:51;14.80;;;5.50;;
52450;SDS011;38366;53.176;6.540;2022-11-25T04:18:18;25.47;;;6.07;;
52450;SDS011;38366;53.176;6.540;2022-11-25T04:20:44;18.10;;;6.00;;
52450;SDS011;38366;53.176;6.540;2022-11-25T04:23:10;25.83;;;6.57;;
52450;SDS011;38366;53.176;6.540;2022-11-25T04:25:37;18.45;;;6.43;;
52450;SDS011;38366;53.176;6.540;2022-11-25T04:28:04;21.83;;;6.25;;
52450;SDS011;38366;53.176;6.540;2022-11-25T04:30:30;19.67;;;6.60;;
52450;SDS011;38366;53.176;6.540;2022-11-25T04:32:56;17.52;;;5.75;;
52450;SDS011;38366;53.176;6.540;2022-11-25T04:35:21;18.20;;;6.18;;
52450;SDS011;38366;53.176;6.540;2022-11-25T04:37:47;22.50;;;6.57;;
52450;SDS011;38366;53.176;6.540;2022-11-25T04:40:13;19.60;;;7.00;;
52450;SDS011;38366;53.176;6.540;2022-11-25T04:42:39;16.33;;;6.25;;
52450;SDS011;38366;53.176;6.540;2022-11-25T04:47:35;13.13;;;6.18;;
52450;SDS011;38366;53.176;6.540;2022-11-25T04:50:02;15.43;;;6.18;;
52450;SDS011;38366;53.176;6.540;2022-11-25T04:52:28;26.35;;;8.05;;
52450;SDS011;38366;53.176;6.540;2022-11-25T04:54:54;18.53;;;6.70;;
52450;SDS011;38366;53.176;6.540;2022-11-25T04:57:20;17.47;;;7.30;;
52450;SDS011;38366;53.176;6.540;2022-11-25T04:59:46;19.30;;;7.15;;
52450;SDS011;38366;53.176;6.540;2022-11-25T05:02:30;24.80;;;7.68;;
52450;SDS011;38366;53.176;6.540;2022-11-25T05:04:56;26.13;;;7.78;;
52450;SDS011;38366;53.176;6.540;2022-11-25T05:07:22;19.17;;;7.70;;
52450;SDS011;38366;53.176;6.540;2022-11-25T05:09:50;24.33;;;7.70;;
52450;SDS011;38366;53.176;6.540;2022-11-25T05:12:17;25.67;;;7.83;;
52450;SDS011;38366;53.176;6.540;2022-11-25T05:14:44;17.15;;;6.93;;
52450;SDS011;38366;53.176;6.540;2022-11-25T05:17:15;14.85;;;5.88;;
52450;SDS011;38366;53.176;6.540;2022-11-25T05:19:42;27.08;;;8.63;;
52450;SDS011;38366;53.176;6.540;2022-11-25T05:22:12;22.55;;;7.97;;
52450;SDS011;38366;53.176;6.540;2022-11-25T05:24:39;22.20;;;8.07;;
52450;SDS011;38366;53.176;6.540;2022-11-25T05:27:05;15.37;;;7.07;;
52450;SDS011;38366;53.176;6.540;2022-11-25T05:29:31;21.33;;;8.38;;
52450;SDS011;38366;53.176;6.540;2022-11-25T05:31:56;26.67;;;7.93;;
52450;SDS011;38366;53.176;6.540;2022-11-25T05:34:22;23.35;;;7.47;;
52450;SDS011;38366;53.176;6.540;2022-11-25T05:36:48;20.13;;;8.03;;
52450;SDS011;38366;53.176;6.540;2022-11-25T05:39:13;21.25;;;7.82;;
52450;SDS011;38366;53.176;6.540;2022-11-25T05:41:39;26.13;;;8.33;;
52450;SDS011;38366;53.176;6.540;2022-11-25T05:44:05;26.13;;;8.43;;
52450;SDS011;38366;53.176;6.540;2022-11-25T05:46:30;24.87;;;8.23;;
52450;SDS011;38366;53.176;6.540;2022-11-25T05:48:56;21.38;;;8.77;;
52450;SDS011;38366;53.176;6.540;2022-11-25T05:51:23;21.30;;;8.95;;
52450;SDS011;38366;53.176;6.540;2022-11-25T05:53:50;20.88;;;8.30;;
52450;SDS011;38366;53.176;6.540;2022-11-25T05:56:16;23.17;;;8.75;;
52450;SDS011;38366;53.176;6.540;2022-11-25T05:58:42;18.42;;;7.55;;
52450;SDS011;38366;53.176;6.540;2022-11-25T06:01:09;21.58;;;7.72;;
52450;SDS011;38366;53.176;6.540;2022-11-25T06:03:36;20.10;;;8.77;;
52450;SDS011;38366;53.176;6.540;2022-11-25T06:06:02;17.98;;;7.10;;
52450;SDS011;38366;53.176;6.540;2022-11-25T06:08:29;23.33;;;8.23;;
52450;SDS011;38366;53.176;6.540;2022-11-25T06:10:55;27.27;;;8.85;;
52450;SDS011;38366;53.176;6.540;2022-11-25T06:13:20;24.23;;;8.37;;
52450;SDS011;38366;53.176;6.540;2022-11-25T06:15:46;25.50;;;8.70;;
52450;SDS011;38366;53.176;6.540;2022-11-25T06:18:14;26.13;;;8.68;;
52450;SDS011;38366;53.176;6.540;2022-11-25T06:20:40;19.98;;;8.75;;
52450;SDS011;38366;53.176;6.540;2022-11-25T06:23:07;18.42;;;7.75;;
52450;SDS011;38366;53.176;6.540;2022-11-25T06:25:33;24.35;;;8.32;;
52450;SDS011;38366;53.176;6.540;2022-11-25T06:28:00;27.63;;;8.88;;
52450;SDS011;38366;53.176;6.540;2022-11-25T06:30:27;21.38;;;7.38;;
52450;SDS011;38366;53.176;6.540;2022-11-25T06:32:53;16.67;;;6.65;;
52450;SDS011;38366;53.176;6.540;2022-11-25T06:35:19;20.23;;;7.32;;
52450;SDS011;38366;53.176;6.540;2022-11-25T06:37:45;22.25;;;8.30;;
52450;SDS011;38366;53.176;6.540;2022-11-25T06:40:11;21.92;;;7.50;;
52450;SDS011;38366;53.176;6.540;2022-11-25T06:42:37;19.88;;;7.50;;
52450;SDS011;38366;53.176;6.540;2022-11-25T06:45:04;25.77;;;8.18;;
52450;SDS011;38366;53.176;6.540;2022-11-25T06:49:55;20.45;;;6.80;;
52450;SDS011;38366;53.176;6.540;2022-11-25T06:52:21;16.63;;;7.03;;
52450;SDS011;38366;53.176;6.540;2022-11-25T06:54:47;23.77;;;7.00;;
52450;SDS011;38366;53.176;6.540;2022-11-25T06:57:15;27.02;;;7.28;;
52450;SDS011;38366;53.176;6.540;2022-11-25T06:59:42;18.20;;;6.47;;
52450;SDS011;38366;53.176;6.540;2022-11-25T07:02:08;18.20;;;6.55;;
52450;SDS011;38366;53.176;6.540;2022-11-25T07:04:36;18.75;;;6.05;;
52450;SDS011;38366;53.176;6.540;2022-11-25T07:07:02;23.35;;;6.78;;
52450;SDS011;38366;53.176;6.540;2022-11-25T07:09:29;22.45;;;6.35;;
52450;SDS011;38366;53.176;6.540;2022-11-25T07:11:54;16.88;;;5.20;;
52450;SDS011;38366;53.176;6.540;2022-11-25T07:14:20;16.53;;;6.37;;
52450;SDS011;38366;53.176;6.540;2022-11-25T07:16:46;13.85;;;5.68;;
52450;SDS011;38366;53.176;6.540;2022-11-25T07:19:13;14.10;;;5.30;;
52450;SDS011;38366;53.176;6.540;2022-11-25T07:21:41;17.85;;;5.82;;
52450;SDS011;38366;53.176;6.540;2022-11-25T07:24:09;11.63;;;4.80;;
52450;SDS011;38366;53.176;6.540;2022-11-25T07:26:37;15.43;;;4.63;;
52450;SDS011;38366;53.176;6.540;2022-11-25T07:29:05;16.02;;;5.38;;
52450;SDS011;38366;53.176;6.540;2022-11-25T07:31:34;12.10;;;4.85;;
52450;SDS011;38366;53.176;6.540;2022-11-25T07:34:19;12.43;;;5.47;;
52450;SDS011;38366;53.176;6.540;2022-11-25T07:36:46;13.50;;;4.68;;
52450;SDS011;38366;53.176;6.540;2022-11-25T07:39:14;15.73;;;4.53;;
52450;SDS011;38366;53.176;6.540;2022-11-25T07:41:42;17.15;;;5.22;;
52450;SDS011;38366;53.176;6.540;2022-11-25T07:44:09;10.77;;;3.33;;
52450;SDS011;38366;53.176;6.540;2022-11-25T07:46:38;9.52;;;3.22;;
52450;SDS011;38366;53.176;6.540;2022-11-25T07:49:12;14.95;;;4.10;;
52450;SDS011;38366;53.176;6.540;2022-11-25T07:54:15;19.05;;;3.97;;
52450;SDS011;38366;53.176;6.540;2022-11-25T07:56:42;10.38;;;3.60;;
52450;SDS011;38366;53.176;6.540;2022-11-25T07:59:11;9.90;;;3.30;;
52450;SDS011;38366;53.176;6.540;2022-11-25T08:01:41;12.18;;;3.50;;
52450;SDS011;38366;53.176;6.540;2022-11-25T08:04:07;8.75;;;3.10;;
52450;SDS011;38366;53.176;6.540;2022-11-25T08:06:38;9.77;;;3.10;;
52450;SDS011;38366;53.176;6.540;2022-11-25T08:09:07;8.45;;;2.80;;
52450;SDS011;38366;53.176;6.540;2022-11-25T08:11:34;11.02;;;2.67;;
52450;SDS011;38366;53.176;6.540;2022-11-25T08:13:59;10.18;;;2.80;;
52450;SDS011;38366;53.176;6.540;2022-11-25T08:16:26;8.10;;;2.67;;
52450;SDS011;38366;53.176;6.540;2022-11-25T08:18:55;12.32;;;3.22;;
52450;SDS011;38366;53.176;6.540;2022-11-25T08:21:21;10.00;;;2.88;;
52450;SDS011;38366;53.176;6.540;2022-11-25T08:23:47;9.68;;;3.78;;
52450;SDS011;38366;53.176;6.540;2022-11-25T08:26:15;10.10;;;2.60;;
52450;SDS011;38366;53.176;6.540;2022-11-25T08:28:42;9.50;;;3.28;;
52450;SDS011;38366;53.176;6.540;2022-11-25T08:31:09;10.02;;;2.92;;
52450;SDS011;38366;53.176;6.540;2022-11-25T08:33:37;8.40;;;3.20;;
52450;SDS011;38366;53.176;6.540;2022-11-25T08:36:04;9.65;;;3.55;;
52450;SDS011;38366;53.176;6.540;2022-11-25T08:38:30;10.07;;;3.38;;
52450;SDS011;38366;53.176;6.540;2022-11-25T08:40:56;5.68;;;2.08;;
52450;SDS011;38366;53.176;6.540;2022-11-25T08:43:23;6.05;;;2.28;;
52450;SDS011;38366;53.176;6.540;2022-11-25T08:45:49;8.07;;;3.10;;
52450;SDS011;38366;53.176;6.540;2022-11-25T08:48:16;10.27;;;2.58;;
52450;SDS011;38366;53.176;6.540;2022-11-25T08:50:45;7.68;;;2.40;;
52450;SDS011;38366;53.176;6.540;2022-11-25T08:53:14;6.90;;;2.80;;
52450;SDS011;38366;53.176;6.540;2022-11-25T08:58:06;5.97;;;2.50;;
52450;SDS011;38366;53.176;6.540;2022-11-25T09:00:42;7.38;;;2.58;;
52450;SDS011;38366;53.176;6.540;2022-11-25T09:03:08;8.20;;;3.15;;
52450;SDS011;38366;53.176;6.540;2022-11-25T09:08:03;6.43;;;2.67;;
52450;SDS011;38366;53.176;6.540;2022-11-25T09:10:30;7.70;;;2.22;;
52450;SDS011;38366;53.176;6.540;2022-11-25T09:12:56;9.07;;;2.47;;
52450;SDS011;38366;53.176;6.540;2022-11-25T09:15:22;8.63;;;2.60;;
52450;SDS011;38366;53.176;6.540;2022-11-25T09:17:48;8.77;;;2.60;;
52450;SDS011;38366;53.176;6.540;2022-11-25T09:20:21;8.07;;;2.53;;
52450;SDS011;38366;53.176;6.540;2022-11-25T09:22:46;7.00;;;2.40;;
52450;SDS011;38366;53.176;6.540;2022-11-25T09:25:12;6.07;;;2.90;;
52450;SDS011;38366;53.176;6.540;2022-11-25T09:27:41;7.78;;;2.45;;
52450;SDS011;38366;53.176;6.540;2022-11-25T09:30:07;4.15;;;2.17;;
52450;SDS011;38366;53.176;6.540;2022-11-25T09:32:33;7.25;;;2.33;;
52450;SDS011;38366;53.176;6.540;2022-11-25T09:34:59;8.23;;;2.33;;
52450;SDS011;38366;53.176;6.540;2022-11-25T09:37:24;5.32;;;2.00;;
52450;SDS011;38366;53.176;6.540;2022-11-25T09:39:53;6.75;;;2.22;;
52450;SDS011;38366;53.176;6.540;2022-11-25T09:48:43;6.80;;;2.20;;
52450;SDS011;38366;53.176;6.540;2022-11-25T09:51:53;8.27;;;2.22;;
52450;SDS011;38366;53.176;6.540;2022-11-25T09:54:23;6.82;;;2.20;;
52450;SDS011;38366;53.176;6.540;2022-11-25T09:57:03;4.88;;;1.75;;
52450;SDS011;38366;53.176;6.540;2022-11-25T10:02:28;8.23;;;2.20;;
52450;SDS011;38366;53.176;6.540;2022-11-25T10:05:08;5.22;;;2.20;;
52450;SDS011;38366;53.176;6.540;2022-11-25T10:07:46;4.18;;;1.90;;
52450;SDS011;38366;53.176;6.540;2022-11-25T10:10:21;7.05;;;1.98;;
52450;SDS011;38366;53.176;6.540;2022-11-25T10:12:50;6.07;;;1.85;;
52450;SDS011;38366;53.176;6.540;2022-11-25T10:15:39;4.22;;;1.40;;
52450;SDS011;38366;53.176;6.540;2022-11-25T10:18:24;4.60;;;1.75;;
52450;SDS011;38366;53.176;6.540;2022-11-25T10:20:58;6.13;;;2.00;;
52450;SDS011;38366;53.176;6.540;2022-11-25T10:23:30;5.25;;;1.80;;
52450;SDS011;38366;53.176;6.540;2022-11-25T10:26:09;5.82;;;2.08;;
52450;SDS011;38366;53.176;6.540;2022-11-25T10:28:40;5.00;;;2.00;;
52450;SDS011;38366;53.176;6.540;2022-11-25T10:31:28;6.72;;;2.05;;
52450;SDS011;38366;53.176;6.540;2022-11-25T10:33:59;4.85;;;1.83;;
52450;SDS011;38366;53.176;6.540;2022-11-25T10:36:31;7.22;;;1.90;;
52450;SDS011;38366;53.176;6.540;2022-11-25T10:41:32;6.25;;;1.90;;
52450;SDS011;38366;53.176;6.540;2022-11-25T10:44:16;5.45;;;1.90;;
52450;SDS011;38366;53.176;6.540;2022-11-25T10:47:05;6.43;;;2.08;;
52450;SDS011;38366;53.176;6.540;2022-11-25T10:52:34;8.50;;;2.10;;
52450;SDS011;38366;53.176;6.540;2022-11-25T10:55:14;8.05;;;1.92;;
52450;SDS011;38366;53.176;6.540;2022-11-25T10:57:51;8.50;;;2.42;;
52450;SDS011;38366;53.176;6.540;2022-11-25T11:00:36;4.95;;;1.77;;
52450;SDS011;38366;53.176;6.540;2022-11-25T11:03:18;7.28;;;2.03;;
52450;SDS011;38366;53.176;6.540;2022-11-25T11:05:51;6.07;;;1.75;;
52450;SDS011;38366;53.176;6.540;2022-11-25T11:10:43;9.13;;;1.73;;
52450;SDS011;38366;53.176;6.540;2022-11-25T11:15:45;6.25;;;1.83;;
52450;SDS011;38366;53.176;6.540;2022-11-25T11:20:57;6.85;;;2.00;;
52450;SDS011;38366;53.176;6.540;2022-11-25T11:23:25;11.45;;;2.47;;
52450;SDS011;38366;53.176;6.540;2022-11-25T11:26:02;8.45;;;1.77;;
52450;SDS011;38366;53.176;6.540;2022-11-25T11:33:27;5.97;;;1.90;;
52450;SDS011;38366;53.176;6.540;2022-11-25T11:36:04;6.57;;;1.92;;
52450;SDS011;38366;53.176;6.540;2022-11-25T11:38:40;7.00;;;1.73;;
52450;SDS011;38366;53.176;6.540;2022-11-25T11:49:52;6.88;;;1.90;;
52450;SDS011;38366;53.176;6.540;2022-11-25T11:55:19;10.20;;;1.83;;
52450;SDS011;38366;53.176;6.540;2022-11-25T11:58:28;8.35;;;1.92;;
52450;SDS011;38366;53.176;6.540;2022-11-25T12:03:41;9.27;;;2.40;;
52450;SDS011;38366;53.176;6.540;2022-11-25T12:08:45;7.95;;;1.80;;
52450;SDS011;38366;53.176;6.540;2022-11-25T12:11:20;7.18;;;1.92;;
52450;SDS011;38366;53.176;6.540;2022-11-25T12:13:54;7.43;;;1.70;;
52450;SDS011;38366;53.176;6.540;2022-11-25T12:16:44;8.77;;;1.98;;
52450;SDS011;38366;53.176;6.540;2022-11-25T12:19:28;7.32;;;1.92;;
52450;SDS011;38366;53.176;6.540;2022-11-25T12:22:12;9.60;;;2.10;;
52450;SDS011;38366;53.176;6.540;2022-11-25T12:24:51;9.55;;;1.65;;
52450;SDS011;38366;53.176;6.540;2022-11-25T12:27:24;7.85;;;1.63;;
52450;SDS011;38366;53.176;6.540;2022-11-25T12:30:10;8.32;;;1.83;;
52450;SDS011;38366;53.176;6.540;2022-11-25T12:35:50;7.82;;;1.90;;
52450;SDS011;38366;53.176;6.540;2022-11-25T12:38:37;8.40;;;1.42;;
52450;SDS011;38366;53.176;6.540;2022-11-25T12:41:12;11.60;;;1.92;;
52450;SDS011;38366;53.176;6.540;2022-11-25T12:44:11;10.13;;;2.00;;
52450;SDS011;38366;53.176;6.540;2022-11-25T12:46:49;11.82;;;1.77;;
52450;SDS011;38366;53.176;6.540;2022-11-25T12:52:09;8.13;;;1.75;;
52450;SDS011;38366;53.176;6.540;2022-11-25T13:00:19;9.93;;;1.77;;
52450;SDS011;38366;53.176;6.540;2022-11-25T13:16:21;10.13;;;1.92;;
52450;SDS011;38366;53.176;6.540;2022-11-25T13:21:14;9.20;;;1.45;;
52450;SDS011;38366;53.176;6.540;2022-11-25T13:23:45;11.05;;;2.03;;
52450;SDS011;38366;53.176;6.540;2022-11-25T13:26:35;10.18;;;2.25;;
52450;SDS011;38366;53.176;6.540;2022-11-25T13:36:55;9.10;;;1.63;;
52450;SDS011;38366;53.176;6.540;2022-11-25T13:42:12;11.90;;;1.35;;
52450;SDS011;38366;53.176;6.540;2022-11-25T13:47:33;9.32;;;2.05;;
52450;SDS011;38366;53.176;6.540;2022-11-25T13:50:20;10.88;;;1.83;;
52450;SDS011;38366;53.176;6.540;2022-11-25T13:55:46;9.35;;;2.10;;
52450;SDS011;38366;53.176;6.540;2022-11-25T13:58:25;7.70;;;1.55;;
52450;SDS011;38366;53.176;6.540;2022-11-25T14:06:04;7.37;;;2.13;;
52450;SDS011;38366;53.176;6.540;2022-11-25T14:20:04;8.95;;;1.70;;
52450;SDS011;38366;53.176;6.540;2022-11-25T14:22:59;6.43;;;1.30;;
52450;SDS011;38366;53.176;6.540;2022-11-25T14:25:49;15.38;;;2.00;;
52450;SDS011;38366;53.176;6.540;2022-11-25T14:30:47;8.30;;;1.58;;
52450;SDS011;38366;53.176;6.540;2022-11-25T14:33:17;11.70;;;2.00;;
52450;SDS011;38366;53.176;6.540;2022-11-25T14:35:50;13.48;;;1.95;;
52450;SDS011;38366;53.176;6.540;2022-11-25T14:38:26;9.68;;;1.70;;
52450;SDS011;38366;53.176;6.540;2022-11-25T14:41:03;11.35;;;1.83;;
52450;SDS011;38366;53.176;6.540;2022-11-25T14:43:38;11.57;;;2.08;;
52450;SDS011;38366;53.176;6.540;2022-11-25T14:46:10;13.25;;;2.20;;
52450;SDS011;38366;53.176;6.540;2022-11-25T14:48:57;9.57;;;1.70;;
52450;SDS011;38366;53.176;6.540;2022-11-25T14:51:26;10.73;;;1.60;;
52450;SDS011;38366;53.176;6.540;2022-11-25T14:53:58;10.07;;;1.80;;
52450;SDS011;38366;53.176;6.540;2022-11-25T14:56:31;14.48;;;1.98;;
52450;SDS011;38366;53.176;6.540;2022-11-25T14:58:59;8.20;;;1.65;;
52450;SDS011;38366;53.176;6.540;2022-11-25T15:01:29;12.80;;;1.90;;
52450;SDS011;38366;53.176;6.540;2022-11-25T15:04:02;11.52;;;1.85;;
52450;SDS011;38366;53.176;6.540;2022-11-25T15:06:36;13.88;;;1.80;;
52450;SDS011;38366;53.176;6.540;2022-11-25T15:09:26;10.05;;;1.90;;
52450;SDS011;38366;53.176;6.540;2022-11-25T15:11:55;12.63;;;2.13;;
52450;SDS011;38366;53.176;6.540;2022-11-25T15:14:24;19.23;;;2.30;;
52450;SDS011;38366;53.176;6.540;2022-11-25T15:17:06;13.80;;;2.00;;
52450;SDS011;38366;53.176;6.540;2022-11-25T15:19:33;8.35;;;1.80;;
52450;SDS011;38366;53.176;6.540;2022-11-25T15:22:04;8.50;;;1.33;;
52450;SDS011;38366;53.176;6.540;2022-11-25T15:24:32;10.48;;;2.03;;
52450;SDS011;38366;53.176;6.540;2022-11-25T15:27:12;7.57;;;1.42;;
52450;SDS011;38366;53.176;6.540;2022-11-25T15:29:41;10.27;;;1.50;;
52450;SDS011;38366;53.176;6.540;2022-11-25T15:32:13;9.23;;;1.80;;
52450;SDS011;38366;53.176;6.540;2022-11-25T15:34:40;15.02;;;2.20;;
52450;SDS011;38366;53.176;6.540;2022-11-25T15:37:09;11.73;;;1.63;;
52450;SDS011;38366;53.176;6.540;2022-11-25T15:39:35;14.13;;;2.28;;
52450;SDS011;38366;53.176;6.540;2022-11-25T15:42:02;11.95;;;2.42;;
52450;SDS011;38366;53.176;6.540;2022-11-25T15:44:32;9.70;;;2.40;;
52450;SDS011;38366;53.176;6.540;2022-11-25T15:49:40;10.90;;;1.92;;
52450;SDS011;38366;53.176;6.540;2022-11-25T15:52:15;11.75;;;2.35;;
52450;SDS011;38366;53.176;6.540;2022-11-25T15:54:44;12.82;;;2.03;;
52450;SDS011;38366;53.176;6.540;2022-11-25T16:07:39;16.08;;;2.13;;
52450;SDS011;38366;53.176;6.540;2022-11-25T16:10:23;12.15;;;1.95;;
52450;SDS011;38366;53.176;6.540;2022-11-25T16:28:57;8.93;;;2.05;;
52450;SDS011;38366;53.176;6.540;2022-11-25T16:31:24;13.20;;;2.30;;
52450;SDS011;38366;53.176;6.540;2022-11-25T16:33:54;9.07;;;1.92;;
52450;SDS011;38366;53.176;6.540;2022-11-25T16:36:37;12.52;;;2.13;;
52450;SDS011;38366;53.176;6.540;2022-11-25T16:39:03;8.48;;;2.05;;
52450;SDS011;38366;53.176;6.540;2022-11-25T16:41:29;9.20;;;2.83;;
52450;SDS011;38366;53.176;6.540;2022-11-25T16:43:56;15.48;;;2.90;;
52450;SDS011;38366;53.176;6.540;2022-11-25T16:46:22;9.98;;;1.98;;
52450;SDS011;38366;53.176;6.540;2022-11-25T16:48:48;9.77;;;2.78;;
52450;SDS011;38366;53.176;6.540;2022-11-25T16:51:20;9.10;;;2.60;;
52450;SDS011;38366;53.176;6.540;2022-11-25T16:53:48;9.02;;;2.35;;
52450;SDS011;38366;53.176;6.540;2022-11-25T16:56:20;8.82;;;2.10;;
52450;SDS011;38366;53.176;6.540;2022-11-25T16:58:50;11.23;;;2.20;;
52450;SDS011;38366;53.176;6.540;2022-11-25T17:01:18;5.85;;;2.00;;
52450;SDS011;38366;53.176;6.540;2022-11-25T17:03:47;15.00;;;2.13;;
52450;SDS011;38366;53.176;6.540;2022-11-25T17:06:17;8.60;;;2.75;;
52450;SDS011;38366;53.176;6.540;2022-11-25T17:08:45;14.25;;;2.00;;
52450;SDS011;38366;53.176;6.540;2022-11-25T17:11:25;11.65;;;2.63;;
52450;SDS011;38366;53.176;6.540;2022-11-25T17:13:54;11.27;;;2.50;;
52450;SDS011;38366;53.176;6.540;2022-11-25T17:16:24;10.68;;;2.65;;
52450;SDS011;38366;53.176;6.540;2022-11-25T17:18:52;15.98;;;2.95;;
52450;SDS011;38366;53.176;6.540;2022-11-25T17:21:20;16.20;;;2.63;;
52450;SDS011;38366;53.176;6.540;2022-11-25T17:23:51;16.95;;;3.30;;
52450;SDS011;38366;53.176;6.540;2022-11-25T17:26:18;7.97;;;2.95;;
52450;SDS011;38366;53.176;6.540;2022-11-25T17:28:59;17.75;;;3.13;;
52450;SDS011;38366;53.176;6.540;2022-11-25T17:31:29;14.65;;;4.03;;
52450;SDS011;38366;53.176;6.540;2022-11-25T17:33:56;13.77;;;3.20;;
52450;SDS011;38366;53.176;6.540;2022-11-25T17:36:22;17.05;;;3.20;;
52450;SDS011;38366;53.176;6.540;2022-11-25T17:38:48;15.13;;;2.95;;